Time;durP1;ratioP1;P1;durP2;ratioP2;P2;SDS_P1;SDS_P2;PMS_P1;PMS_P2;Temp;Humidity;BMP_temperature;BMP_pressure;BME280_temperature;BME280_humidity;BME280_pressure;Samples;Min_cycle;Max_cycle;Signal;HPM_P1;HPM_P2
2021/03/10 00:00:59;;;;;;;5.10;4.60;;;5.70;81.70;;;;;;5099908;28;20028;-77
2021/03/10 00:03:24;;;;;;;8.17;6.37;;;5.60;82.00;;;;;;5097905;28;20032;-76
2021/03/10 00:05:50;;;;;;;7.97;5.90;;;5.40;82.20;;;;;;5109156;28;20024;-76
2021/03/10 00:08:15;;;;;;;11.30;7.73;;;5.30;82.50;;;;;;5103461;28;20036;-75
2021/03/10 00:10:42;;;;;;;10.53;7.70;;;5.30;83.00;;;;;;5097172;28;20468;-75
2021/03/10 00:13:09;;;;;;;10.87;7.93;;;5.20;83.40;;;;;;5075117;28;20040;-75
2021/03/10 00:15:34;;;;;;;7.67;6.37;;;5.20;83.60;;;;;;5088675;28;20248;-75
2021/03/10 00:18:00;;;;;;;9.67;6.73;;;5.10;83.60;;;;;;5108796;28;20036;-74
2021/03/10 00:20:26;;;;;;;10.57;7.73;;;5.10;83.80;;;;;;5102543;28;20433;-75
2021/03/10 00:22:51;;;;;;;12.40;9.17;;;5.00;84.00;;;;;;5096205;28;20031;-75
2021/03/10 00:25:18;;;;;;;9.73;7.63;;;5.00;84.40;;;;;;5100733;28;20028;-76
2021/03/10 00:27:44;;;;;;;9.37;7.37;;;5.10;84.70;;;;;;5098130;28;20111;-76
2021/03/10 00:30:11;;;;;;;10.07;7.37;;;5.30;84.50;;;;;;5074034;28;20031;-75
2021/03/10 00:32:38;;;;;;;7.30;6.47;;;5.40;84.30;;;;;;5107432;28;20028;-75
2021/03/10 00:35:05;;;;;;;10.03;7.63;;;5.50;84.00;;;;;;5093771;28;20035;-75
2021/03/10 00:37:31;;;;;;;9.10;7.50;;;5.70;83.90;;;;;;5105781;28;20345;-75
2021/03/10 00:39:56;;;;;;;13.87;10.10;;;5.80;83.80;;;;;;5109290;28;20055;-76
2021/03/10 00:42:22;;;;;;;14.50;9.83;;;5.90;83.80;;;;;;5109251;28;20028;-77
2021/03/10 00:44:48;;;;;;;11.23;8.70;;;6.00;83.80;;;;;;5077500;28;20029;-78
2021/03/10 00:47:14;;;;;;;10.53;7.50;;;6.20;83.60;;;;;;5110323;28;20028;-78
2021/03/10 00:49:41;;;;;;;11.37;9.07;;;6.20;83.30;;;;;;5086720;28;20035;-76
2021/03/10 00:52:07;;;;;;;9.87;8.23;;;6.30;83.20;;;;;;5091427;28;20049;-76
2021/03/10 00:54:34;;;;;;;9.73;8.17;;;6.30;83.00;;;;;;5091536;28;20030;-76
2021/03/10 00:56:59;;;;;;;11.00;7.77;;;6.40;82.90;;;;;;5095792;28;20156;-76
2021/03/10 00:59:25;;;;;;;9.17;7.80;;;6.40;82.70;;;;;;5091854;28;20130;-76
2021/03/10 01:01:52;;;;;;;11.33;8.07;;;6.40;82.70;;;;;;5092800;28;20537;-77
2021/03/10 01:04:17;;;;;;;13.60;9.27;;;6.40;82.60;;;;;;5091570;28;20024;-77
2021/03/10 01:06:43;;;;;;;11.93;8.47;;;6.50;82.70;;;;;;5100212;28;20080;-76
2021/03/10 01:09:09;;;;;;;11.13;8.43;;;6.50;82.80;;;;;;5081197;28;20475;-76
2021/03/10 01:11:35;;;;;;;9.67;7.80;;;6.60;82.90;;;;;;5104530;28;20030;-75
2021/03/10 01:14:02;;;;;;;11.17;8.70;;;6.60;82.60;;;;;;5099273;28;20028;-76
2021/03/10 01:16:28;;;;;;;10.27;8.30;;;6.60;82.60;;;;;;5102983;28;20085;-77
2021/03/10 01:18:55;;;;;;;12.37;8.93;;;6.60;82.60;;;;;;5077779;28;20032;-77
2021/03/10 01:21:21;;;;;;;13.00;8.57;;;6.60;82.50;;;;;;5083599;28;20532;-77
2021/03/10 01:23:47;;;;;;;10.47;8.70;;;6.70;82.50;;;;;;5092027;28;20118;-76
2021/03/10 01:26:12;;;;;;;11.03;8.20;;;6.60;82.50;;;;;;5083305;28;20031;-76
2021/03/10 01:28:39;;;;;;;13.37;8.40;;;6.70;82.60;;;;;;5085428;28;20033;-77
2021/03/10 01:31:05;;;;;;;10.57;8.27;;;6.70;82.50;;;;;;5101587;28;20043;-77
2021/03/10 01:33:30;;;;;;;9.53;7.73;;;6.70;82.60;;;;;;5064330;28;20487;-77
2021/03/10 01:35:56;;;;;;;9.10;7.70;;;6.60;82.50;;;;;;5074502;28;20512;-76
2021/03/10 01:38:22;;;;;;;10.20;7.83;;;6.50;82.50;;;;;;5082786;28;20169;-76
2021/03/10 01:40:47;;;;;;;11.90;7.70;;;6.50;82.80;;;;;;5107813;28;21161;-75
2021/03/10 01:43:13;;;;;;;9.20;7.83;;;6.40;82.70;;;;;;5109727;28;20032;-74
2021/03/10 01:45:39;;;;;;;11.40;8.07;;;6.30;82.90;;;;;;5100106;28;20028;-75
2021/03/10 01:48:08;;;;;;;10.37;7.27;;;6.20;83.10;;;;;;5101228;28;20487;-76
2021/03/10 01:50:34;;;;;;;9.70;7.53;;;6.10;83.40;;;;;;5094759;28;20023;-77
2021/03/10 01:53:00;;;;;;;9.17;7.10;;;6.00;83.60;;;;;;5099438;28;20071;-77
2021/03/10 01:55:26;;;;;;;11.40;8.23;;;5.90;83.70;;;;;;5086699;28;20524;-76
2021/03/10 01:57:52;;;;;;;11.40;7.23;;;5.80;84.10;;;;;;5100123;28;20383;-76
2021/03/10 02:03:39;;;;;;;9.97;6.80;;;5.70;84.20;;;;;;5352254;22;20088;-76
2021/03/10 02:06:05;;;;;;;8.37;7.30;;;5.70;84.20;;;;;;5017720;28;20065;-74
2021/03/10 02:08:54;;;;;;;10.63;7.03;;;5.70;84.30;;;;;;5013322;28;20401;-74
2021/03/10 02:11:19;;;;;;;10.83;7.13;;;5.70;84.00;;;;;;5029683;28;20091;-72
2021/03/10 02:13:54;;;;;;;9.10;7.10;;;5.70;84.00;;;;;;5030109;28;20462;-72
2021/03/10 02:16:41;;;;;;;9.47;6.90;;;5.70;84.10;;;;;;5030085;28;20040;-73
2021/03/10 02:19:32;;;;;;;9.97;7.63;;;5.60;83.80;;;;;;5012231;28;20422;-73
2021/03/10 02:22:06;;;;;;;8.17;7.17;;;5.60;84.10;;;;;;5015515;28;20060;-74
2021/03/10 02:24:47;;;;;;;8.17;7.30;;;5.50;84.20;;;;;;5035257;28;20036;-76
2021/03/10 02:27:33;;;;;;;8.67;7.27;;;5.50;84.40;;;;;;5033636;28;20585;-76
2021/03/10 02:30:08;;;;;;;11.97;7.30;;;5.40;84.40;;;;;;5030884;28;20022;-77
2021/03/10 02:32:39;;;;;;;9.53;7.27;;;5.40;84.50;;;;;;5016846;28;20096;-76
2021/03/10 02:35:07;;;;;;;8.50;7.37;;;5.40;84.60;;;;;;5015902;28;20065;-79
2021/03/10 02:37:35;;;;;;;10.20;7.60;;;5.40;84.80;;;;;;5016755;28;20064;-76
2021/03/10 02:40:02;;;;;;;9.70;7.63;;;5.30;85.00;;;;;;5014408;28;20033;-77
2021/03/10 02:42:29;;;;;;;13.70;8.93;;;5.30;85.20;;;;;;4999931;28;20033;-76
2021/03/10 02:44:56;;;;;;;11.27;8.67;;;5.40;85.50;;;;;;4999850;28;20393;-79
2021/03/10 02:47:24;;;;;;;10.90;8.30;;;5.30;85.20;;;;;;5033899;28;20033;-76
2021/03/10 02:49:52;;;;;;;12.53;8.83;;;5.30;85.30;;;;;;5034228;28;20079;-75
2021/03/10 02:52:19;;;;;;;12.23;8.43;;;5.40;85.60;;;;;;5033068;28;20092;-76
2021/03/10 02:54:45;;;;;;;12.50;9.70;;;5.40;85.70;;;;;;5000106;28;20053;-72
2021/03/10 02:57:11;;;;;;;12.93;9.70;;;5.40;85.70;;;;;;5013816;28;20393;-74
2021/03/10 02:59:37;;;;;;;12.77;10.00;;;5.50;85.70;;;;;;4999072;28;20033;-73
2021/03/10 03:02:03;;;;;;;12.57;9.50;;;5.60;85.70;;;;;;5015153;28;20034;-72
2021/03/10 03:04:28;;;;;;;15.80;11.70;;;5.60;85.70;;;;;;5015907;28;20048;-73
2021/03/10 03:06:54;;;;;;;13.13;10.37;;;5.60;85.50;;;;;;5016552;28;20485;-73
2021/03/10 03:09:20;;;;;;;15.70;11.57;;;5.70;85.50;;;;;;5014617;28;20057;-73
2021/03/10 03:11:46;;;;;;;15.23;10.90;;;5.70;85.40;;;;;;5016320;28;20063;-74
2021/03/10 03:14:12;;;;;;;14.30;10.70;;;5.60;85.70;;;;;;4982868;28;20397;-73
2021/03/10 03:16:39;;;;;;;14.47;10.57;;;5.60;85.30;;;;;;5015981;28;20117;-73
2021/03/10 03:19:05;;;;;;;13.43;9.97;;;5.70;85.30;;;;;;5015038;28;20436;-73
2021/03/10 03:21:33;;;;;;;14.73;10.20;;;5.70;85.40;;;;;;4999960;28;20033;-75
2021/03/10 03:23:59;;;;;;;13.70;10.23;;;5.80;85.30;;;;;;5023237;28;20091;-79
2021/03/10 03:26:25;;;;;;;16.17;11.13;;;5.90;85.40;;;;;;4995599;28;20128;-75
2021/03/10 03:28:53;;;;;;;16.23;11.53;;;6.00;85.10;;;;;;5028192;28;20056;-74
2021/03/10 03:31:20;;;;;;;15.80;12.40;;;6.00;85.00;;;;;;5014936;28;20292;-73
2021/03/10 03:33:45;;;;;;;15.67;11.90;;;6.00;84.70;;;;;;5015818;28;20049;-75
2021/03/10 03:36:11;;;;;;;16.80;11.97;;;6.00;84.60;;;;;;5014825;28;20030;-74
2021/03/10 03:38:38;;;;;;;14.97;11.27;;;6.00;84.60;;;;;;5015392;28;20037;-74
2021/03/10 03:41:04;;;;;;;13.73;11.13;;;5.90;84.60;;;;;;5014642;28;20037;-74
2021/03/10 03:43:30;;;;;;;16.30;11.83;;;5.90;84.50;;;;;;4999254;28;20500;-74
2021/03/10 03:45:56;;;;;;;16.90;11.23;;;5.90;84.50;;;;;;5015125;28;20021;-74
2021/03/10 03:48:22;;;;;;;17.20;12.07;;;5.90;84.90;;;;;;5005912;28;20021;-74
2021/03/10 03:50:48;;;;;;;19.40;13.77;;;6.00;84.80;;;;;;5015704;28;20068;-76
2021/03/10 03:53:14;;;;;;;16.03;11.43;;;6.00;84.50;;;;;;4998233;28;20083;-76
2021/03/10 03:55:43;;;;;;;17.87;13.17;;;6.00;84.70;;;;;;5015895;28;20033;-75
2021/03/10 03:58:09;;;;;;;17.33;12.07;;;6.00;84.70;;;;;;4996150;28;20038;-76
2021/03/10 04:00:34;;;;;;;18.90;12.20;;;6.00;84.70;;;;;;5014869;28;20507;-75
2021/03/10 04:03:00;;;;;;;21.87;14.97;;;6.00;84.70;;;;;;5015532;28;20033;-76
2021/03/10 04:05:27;;;;;;;20.30;14.70;;;6.00;84.40;;;;;;5014773;28;20099;-75
2021/03/10 04:08:00;;;;;;;20.80;14.63;;;5.80;84.10;;;;;;5032525;28;20425;-75
2021/03/10 04:10:32;;;;;;;23.63;16.80;;;5.80;84.40;;;;;;5031520;28;20030;-75
2021/03/10 04:12:59;;;;;;;20.03;14.30;;;5.70;84.90;;;;;;5033137;28;20064;-75
2021/03/10 04:15:29;;;;;;;18.43;13.30;;;5.60;84.60;;;;;;5013549;28;20029;-76
2021/03/10 04:17:54;;;;;;;17.43;12.90;;;5.60;85.00;;;;;;4992737;28;20112;-76
2021/03/10 04:20:22;;;;;;;23.03;14.60;;;5.70;85.20;;;;;;5011055;28;20506;-76
2021/03/10 04:22:48;;;;;;;19.47;13.37;;;5.70;85.00;;;;;;5015098;28;20025;-74
2021/03/10 04:25:14;;;;;;;18.83;13.20;;;5.80;85.50;;;;;;5031283;28;20355;-73
2021/03/10 04:27:40;;;;;;;24.30;14.53;;;5.90;85.30;;;;;;5014835;28;20053;-73
2021/03/10 04:30:08;;;;;;;20.33;14.10;;;5.90;85.00;;;;;;5031797;28;20029;-79
2021/03/10 04:32:34;;;;;;;18.77;13.93;;;5.90;84.80;;;;;;5015257;28;20040;-76
2021/03/10 04:34:59;;;;;;;21.27;14.97;;;5.90;84.70;;;;;;5014381;28;20029;-76
2021/03/10 04:37:25;;;;;;;19.60;14.47;;;5.90;84.70;;;;;;5031003;28;20049;-75
2021/03/10 04:39:51;;;;;;;20.30;13.77;;;5.90;84.80;;;;;;5014485;28;20122;-75
2021/03/10 04:42:17;;;;;;;24.00;15.87;;;5.90;84.80;;;;;;5013791;28;20025;-75
2021/03/10 04:44:42;;;;;;;22.07;15.10;;;5.90;85.00;;;;;;5013949;28;20035;-76
2021/03/10 04:47:08;;;;;;;21.60;15.20;;;5.90;85.10;;;;;;5009785;28;20053;-78
2021/03/10 04:49:34;;;;;;;22.90;14.90;;;5.90;85.20;;;;;;4996528;28;20034;-76
2021/03/10 04:51:59;;;;;;;22.27;15.50;;;5.90;85.20;;;;;;5031942;28;20478;-76
2021/03/10 04:54:26;;;;;;;22.40;16.07;;;5.90;85.30;;;;;;5013524;28;20036;-76
2021/03/10 04:56:51;;;;;;;23.70;16.53;;;6.00;85.40;;;;;;4998057;28;20505;-75
2021/03/10 04:59:17;;;;;;;27.03;18.10;;;6.00;85.30;;;;;;4996259;28;20053;-75
2021/03/10 05:01:43;;;;;;;26.47;17.77;;;5.90;85.20;;;;;;5013775;28;20124;-75
2021/03/10 05:04:08;;;;;;;28.57;18.77;;;5.90;85.30;;;;;;5013613;28;20049;-78
2021/03/10 05:06:34;;;;;;;27.50;17.33;;;5.90;85.50;;;;;;4997230;28;20363;-76
2021/03/10 05:09:00;;;;;;;24.50;16.70;;;5.90;85.60;;;;;;4991904;28;20474;-76
2021/03/10 05:11:25;;;;;;;23.10;16.13;;;5.90;85.70;;;;;;5013355;28;20594;-77
2021/03/10 05:13:52;;;;;;;27.83;18.13;;;6.00;85.90;;;;;;4998111;28;20080;-75
2021/03/10 05:16:17;;;;;;;27.43;18.77;;;6.00;85.70;;;;;;5012988;28;20033;-77
2021/03/10 05:18:43;;;;;;;31.43;19.30;;;6.00;85.70;;;;;;4996972;28;20197;-76
2021/03/10 05:21:09;;;;;;;30.80;19.80;;;6.00;85.80;;;;;;5013119;28;20044;-80
2021/03/10 05:23:35;;;;;;;28.07;18.80;;;6.00;85.80;;;;;;5031728;28;20032;-76
2021/03/10 05:26:01;;;;;;;27.87;19.33;;;5.90;85.90;;;;;;4997384;28;20033;-77
2021/03/10 05:28:27;;;;;;;31.27;21.50;;;6.00;86.00;;;;;;5012919;28;20040;-77
2021/03/10 05:30:52;;;;;;;26.93;19.20;;;5.90;85.80;;;;;;4996918;28;20029;-77
2021/03/10 05:33:18;;;;;;;27.43;18.30;;;5.80;86.10;;;;;;5013262;28;20537;-76
2021/03/10 05:35:43;;;;;;;27.90;18.13;;;5.70;86.40;;;;;;4996960;28;20043;-77
2021/03/10 05:38:09;;;;;;;31.50;20.33;;;5.70;86.60;;;;;;5013224;28;20026;-76
2021/03/10 05:40:35;;;;;;;29.00;19.50;;;5.70;86.70;;;;;;5009116;28;20050;-74
2021/03/10 05:43:01;;;;;;;30.03;19.87;;;5.70;86.70;;;;;;4986342;28;20179;-74
2021/03/10 05:45:27;;;;;;;31.77;20.37;;;5.60;86.90;;;;;;5030453;28;20109;-75
2021/03/10 05:47:52;;;;;;;33.10;21.23;;;5.60;87.10;;;;;;4996559;28;20040;-74
2021/03/10 05:50:18;;;;;;;32.40;20.40;;;5.50;87.20;;;;;;5012337;28;20071;-74
2021/03/10 05:52:48;;;;;;;38.33;23.13;;;5.50;87.40;;;;;;5013851;28;20038;-73
2021/03/10 05:55:16;;;;;;;35.53;21.57;;;5.50;87.60;;;;;;5030751;28;20025;-77
2021/03/10 05:57:45;;;;;;;38.23;23.03;;;5.60;87.90;;;;;;5016613;28;20050;-74
2021/03/10 06:00:13;;;;;;;33.60;20.90;;;5.70;87.80;;;;;;5017127;28;20040;-78
2021/03/10 06:02:39;;;;;;;38.77;23.40;;;5.70;87.80;;;;;;5034524;28;20026;-75
2021/03/10 06:05:16;;;;;;;35.27;22.23;;;5.80;87.80;;;;;;5017048;28;20164;-73
2021/03/10 06:07:42;;;;;;;37.40;23.20;;;5.80;87.80;;;;;;5019008;28;20030;-72
2021/03/10 06:10:08;;;;;;;43.43;25.90;;;5.90;87.90;;;;;;5016774;28;20512;-73
2021/03/10 06:12:44;;;;;;;38.80;24.80;;;5.90;87.80;;;;;;5016228;28;20109;-72
2021/03/10 06:15:11;;;;;;;38.37;24.07;;;6.10;87.80;;;;;;5034105;28;20474;-72
2021/03/10 06:17:45;;;;;;;44.77;27.27;;;6.20;87.70;;;;;;5016337;28;20034;-73
2021/03/10 06:20:25;;;;;;;40.70;24.57;;;6.30;87.60;;;;;;5000993;28;20069;-74
2021/03/10 06:22:55;;;;;;;45.17;28.13;;;6.40;87.60;;;;;;5015560;28;20026;-73
2021/03/10 06:25:35;;;;;;;46.90;27.73;;;6.40;87.40;;;;;;5031856;28;20025;-74
2021/03/10 06:28:01;;;;;;;45.67;28.30;;;6.40;87.50;;;;;;5034371;28;20029;-73
2021/03/10 06:30:42;;;;;;;48.53;28.37;;;6.50;87.60;;;;;;4999826;28;20033;-73
2021/03/10 06:33:08;;;;;;;45.23;26.90;;;6.60;87.50;;;;;;5031223;28;20045;-72
2021/03/10 06:35:35;;;;;;;46.40;28.17;;;6.60;87.60;;;;;;5018797;28;20048;-73
2021/03/10 06:38:12;;;;;;;50.83;29.97;;;6.80;87.50;;;;;;5034206;28;20037;-77
2021/03/10 06:40:55;;;;;;;43.90;27.33;;;6.80;87.30;;;;;;5016513;28;20128;-73
2021/03/10 06:43:40;;;;;;;54.43;31.70;;;6.80;87.20;;;;;;5015938;28;20481;-74
2021/03/10 06:46:17;;;;;;;51.93;32.80;;;6.80;87.20;;;;;;5034183;28;20033;-75
2021/03/10 06:49:00;;;;;;;54.13;32.70;;;6.90;87.10;;;;;;5024819;28;20065;-76
2021/03/10 06:51:26;;;;;;;;;;;6.90;87.20;;;;;;5022927;28;20052;-78
2021/03/10 06:53:52;;;;;;;61.37;36.17;;;7.00;87.20;;;;;;4995768;28;19913;-76
2021/03/10 06:56:26;;;;;;;56.93;35.53;;;7.10;87.00;;;;;;5031472;28;20113;-81
2021/03/10 06:58:58;;;;;;;59.47;35.27;;;7.10;86.90;;;;;;5030286;28;20112;-76
2021/03/10 07:01:36;;;;;;;59.90;36.83;;;7.10;86.90;;;;;;5029507;28;20120;-75
2021/03/10 07:04:02;;;;;;;55.03;34.37;;;7.10;86.70;;;;;;5009417;28;20058;-76
2021/03/10 07:06:29;;;;;;;61.07;38.67;;;7.10;86.80;;;;;;5012241;28;20037;-75
2021/03/10 07:08:56;;;;;;;56.53;34.97;;;7.20;86.70;;;;;;5003479;28;20125;-75
2021/03/10 07:11:22;;;;;;;60.03;36.40;;;7.30;86.90;;;;;;5010826;28;20021;-80
2021/03/10 07:13:49;;;;;;;58.37;35.53;;;7.30;86.60;;;;;;5013516;28;20422;-74
2021/03/10 07:16:15;;;;;;;56.50;35.63;;;7.30;86.50;;;;;;5014799;28;20030;-73
2021/03/10 07:18:41;;;;;;;69.37;41.33;;;7.30;86.60;;;;;;4996103;28;20037;-74
2021/03/10 07:21:13;;;;;;;63.00;37.70;;;7.30;86.00;;;;;;5013429;28;20038;-74
2021/03/10 07:23:46;;;;;;;64.78;38.25;;;7.30;86.40;;;;;;5013389;28;20049;-74
2021/03/10 07:26:14;;;;;;;60.35;37.58;;;7.40;86.30;;;;;;5015211;28;20018;-74
2021/03/10 07:28:46;;;;;;;60.67;38.00;;;7.40;85.90;;;;;;5014918;28;20276;-74
2021/03/10 07:31:20;;;;;;;64.80;39.13;;;7.50;86.10;;;;;;5015775;28;20029;-75
2021/03/10 07:33:54;;;;;;;62.77;40.73;;;7.50;85.90;;;;;;5014836;28;20030;-75
2021/03/10 07:36:37;;;;;;;62.00;39.70;;;7.50;85.70;;;;;;5016195;28;20467;-81
2021/03/10 07:39:04;;;;;;;66.45;40.95;;;7.50;85.20;;;;;;5006807;28;20030;-75
2021/03/10 07:41:36;;;;;;;60.57;37.83;;;7.50;85.00;;;;;;5015780;28;20486;-75
2021/03/10 07:44:13;;;;;;;64.40;40.90;;;7.50;84.80;;;;;;5015908;28;20026;-74
2021/03/10 07:46:39;;;;;;;65.90;41.77;;;7.50;84.40;;;;;;5013861;28;20141;-73
2021/03/10 07:49:15;;;;;;;68.87;40.27;;;7.40;84.00;;;;;;5014851;28;20061;-75
2021/03/10 07:51:41;;;;;;;65.33;40.97;;;7.40;84.30;;;;;;5013211;28;20211;-74
2021/03/10 07:54:27;;;;;;;68.67;41.57;;;7.50;84.10;;;;;;5012973;28;20486;-74
2021/03/10 07:57:08;;;;;;;59.60;37.53;;;7.50;84.00;;;;;;5006910;28;20022;-74
2021/03/10 07:59:34;;;;;;;66.20;39.97;;;7.60;84.40;;;;;;5007987;28;20064;-78
2021/03/10 08:02:08;;;;;;;65.27;40.13;;;7.60;84.00;;;;;;5011032;28;20064;-74
2021/03/10 08:04:35;;;;;;;62.33;40.77;;;7.70;84.00;;;;;;5005846;28;20457;-75
2021/03/10 08:07:01;;;;;;;58.10;37.50;;;7.80;84.20;;;;;;5022789;28;20037;-75
2021/03/10 08:09:29;;;;;;;61.53;39.77;;;7.90;83.90;;;;;;5006196;28;20037;-80
2021/03/10 08:12:07;;;;;;;63.47;38.73;;;7.90;83.50;;;;;;5009993;28;20029;-75
2021/03/10 08:14:44;;;;;;;61.57;39.83;;;7.80;83.30;;;;;;5010662;28;20069;-78
2021/03/10 08:17:21;;;;;;;60.83;40.10;;;7.80;83.60;;;;;;5008379;28;20026;-74
2021/03/10 08:20:04;;;;;;;61.53;38.73;;;7.80;83.60;;;;;;5005185;28;20037;-76
2021/03/10 08:22:31;;;;;;;63.10;40.47;;;7.90;83.00;;;;;;5003415;28;20409;-76
2021/03/10 08:24:58;;;;;;;61.00;39.23;;;7.80;82.60;;;;;;5013793;28;20037;-75
2021/03/10 08:27:39;;;;;;;63.53;38.80;;;7.80;82.60;;;;;;5007968;28;20029;-84
2021/03/10 08:30:08;;;;;;;59.40;38.77;;;7.80;82.90;;;;;;5006254;28;20037;-76
2021/03/10 08:32:33;;;;;;;61.83;38.70;;;8.00;82.90;;;;;;5015638;28;20026;-75
2021/03/10 08:35:14;;;;;;;66.77;40.87;;;8.10;81.80;;;;;;5002234;28;20080;-75
2021/03/10 08:37:50;;;;;;;62.63;39.33;;;8.10;82.20;;;;;;5012370;28;20120;-76
2021/03/10 08:40:19;;;;;;;62.63;40.97;;;8.20;82.20;;;;;;5012933;28;20030;-76
2021/03/10 08:42:46;;;;;;;67.17;41.73;;;8.30;82.20;;;;;;5011115;28;20119;-75
2021/03/10 08:45:27;;;;;;;62.03;40.37;;;8.30;82.20;;;;;;5013696;28;20029;-77
2021/03/10 08:47:57;;;;;;;61.57;38.10;;;8.50;81.90;;;;;;5013493;28;20030;-74
2021/03/10 08:50:30;;;;;;;64.33;38.10;;;8.40;80.80;;;;;;5013631;28;20029;-77
2021/03/10 08:52:56;;;;;;;61.63;38.37;;;8.40;80.90;;;;;;5014043;28;20030;-77
2021/03/10 08:55:26;;;;;;;57.77;37.57;;;8.50;80.80;;;;;;4996163;28;20080;-75
2021/03/10 08:57:53;;;;;;;62.33;39.40;;;8.40;80.60;;;;;;4995032;28;20061;-75
2021/03/10 09:00:21;;;;;;;71.47;42.37;;;8.40;80.60;;;;;;5012309;28;20478;-76
2021/03/10 09:02:51;;;;;;;77.43;42.63;;;8.50;80.60;;;;;;5010173;28;20048;-73
2021/03/10 09:05:27;;;;;;;72.87;41.90;;;8.50;81.20;;;;;;5004309;28;20080;-76
2021/03/10 09:07:53;;;;;;;72.63;41.43;;;8.80;80.70;;;;;;5012612;28;20034;-75
2021/03/10 09:10:21;;;;;;;66.93;39.43;;;8.90;79.90;;;;;;5011173;28;20168;-74
2021/03/10 09:12:49;;;;;;;59.27;37.93;;;9.00;79.30;;;;;;5009736;28;20029;-75
2021/03/10 09:15:19;;;;;;;57.00;36.70;;;9.10;79.60;;;;;;5010625;28;20180;-74
2021/03/10 09:17:46;;;;;;;55.67;34.20;;;9.20;79.20;;;;;;5010406;28;20045;-75
2021/03/10 09:20:35;;;;;;;52.70;32.53;;;9.30;78.60;;;;;;5012747;28;20033;-74
2021/03/10 09:23:01;;;;;;;51.77;33.03;;;9.50;78.10;;;;;;5012615;28;20080;-74
2021/03/10 09:25:37;;;;;;;46.50;31.37;;;9.70;78.20;;;;;;5012014;28;20109;-79
2021/03/10 09:28:11;;;;;;;47.53;30.90;;;10.00;77.70;;;;;;5012399;28;20064;-73
2021/03/10 09:30:43;;;;;;;48.43;29.57;;;10.10;76.90;;;;;;5011248;28;20037;-75
2021/03/10 09:33:26;;;;;;;44.13;28.77;;;10.20;76.10;;;;;;5011547;28;20034;-74
2021/03/10 09:35:59;;;;;;;43.50;28.88;;;10.30;75.70;;;;;;5011924;28;20049;-74
2021/03/10 09:38:27;;;;;;;42.00;27.27;;;10.40;76.00;;;;;;5011534;28;20026;-73
2021/03/10 09:41:02;;;;;;;39.73;27.83;;;10.50;75.90;;;;;;5011936;28;20034;-75
2021/03/10 09:43:33;;;;;;;43.63;27.20;;;10.70;74.80;;;;;;5010931;28;20064;-73
2021/03/10 09:46:06;;;;;;;40.27;28.77;;;10.80;74.50;;;;;;5011037;28;20033;-73
2021/03/10 09:48:41;;;;;;;38.83;26.23;;;10.90;72.60;;;;;;5009911;28;20026;-74
2021/03/10 09:51:16;;;;;;;35.10;25.47;;;10.80;72.70;;;;;;5009046;28;20135;-73
2021/03/10 09:53:44;;;;;;;37.47;25.87;;;10.80;72.70;;;;;;5008954;28;20057;-74
2021/03/10 09:56:15;;;;;;;36.23;24.90;;;10.90;73.50;;;;;;5004160;28;20026;-74
2021/03/10 09:58:52;;;;;;;34.70;24.23;;;11.10;72.90;;;;;;5010795;28;20088;-73
2021/03/10 10:01:18;;;;;;;36.77;23.63;;;11.00;71.30;;;;;;5009970;28;20034;-74
2021/03/10 10:03:44;;;;;;;35.10;23.33;;;11.00;71.80;;;;;;5012215;28;20469;-74
2021/03/10 10:06:12;;;;;;;36.23;24.17;;;11.10;71.70;;;;;;5031112;28;20128;-72
2021/03/10 10:08:38;;;;;;;34.80;23.57;;;11.00;70.50;;;;;;5029618;28;20052;-76
2021/03/10 10:11:05;;;;;;;31.67;23.23;;;11.00;70.60;;;;;;4996511;28;20433;-75
2021/03/10 10:13:31;;;;;;;31.73;22.53;;;11.00;70.80;;;;;;4997214;28;20087;-79
2021/03/10 10:15:57;;;;;;;35.73;23.37;;;11.00;70.20;;;;;;5031415;28;20057;-74
2021/03/10 10:18:23;;;;;;;32.67;23.77;;;11.10;71.00;;;;;;5013284;28;20401;-75
2021/03/10 10:20:49;;;;;;;33.87;24.20;;;11.20;70.90;;;;;;4990577;28;20034;-74
2021/03/10 10:23:15;;;;;;;31.90;22.90;;;11.30;70.00;;;;;;5028840;28;20038;-73
2021/03/10 10:25:41;;;;;;;31.70;22.97;;;11.40;70.70;;;;;;5012476;28;20490;-74
2021/03/10 10:28:07;;;;;;;32.17;22.97;;;11.30;69.60;;;;;;5012357;28;20038;-73
2021/03/10 10:30:33;;;;;;;32.90;23.03;;;11.30;69.70;;;;;;5030307;28;20030;-78
2021/03/10 10:32:58;;;;;;;30.07;20.70;;;11.50;70.30;;;;;;5013329;28;20053;-72
2021/03/10 10:35:24;;;;;;;30.87;21.10;;;11.50;70.10;;;;;;5012254;28;20030;-73
2021/03/10 10:37:49;;;;;;;28.90;20.53;;;11.60;68.40;;;;;;5030570;28;20060;-73
2021/03/10 10:40:18;;;;;;;30.07;21.73;;;11.60;69.00;;;;;;4997494;28;20072;-73
2021/03/10 10:42:48;;;;;;;30.73;20.63;;;11.60;68.10;;;;;;5015901;28;20032;-74
2021/03/10 10:45:14;;;;;;;34.07;22.30;;;11.60;67.50;;;;;;5034990;28;20060;-75
2021/03/10 10:47:40;;;;;;;27.67;19.97;;;11.60;66.30;;;;;;5017001;28;20051;-74
2021/03/10 10:50:07;;;;;;;24.37;18.27;;;11.60;67.40;;;;;;5034483;28;20034;-74
2021/03/10 10:52:37;;;;;;;23.00;17.10;;;11.60;65.90;;;;;;5015638;28;20437;-76
2021/03/10 10:55:17;;;;;;;26.27;18.47;;;11.70;65.90;;;;;;5014696;28;20029;-74
2021/03/10 10:57:43;;;;;;;24.13;17.27;;;11.60;64.80;;;;;;5014579;28;20110;-74
2021/03/10 11:00:10;;;;;;;23.37;17.83;;;11.60;66.30;;;;;;5015831;28;20069;-74
2021/03/10 11:02:36;;;;;;;26.43;20.20;;;11.70;66.00;;;;;;5012696;28;20041;-80
2021/03/10 11:05:03;;;;;;;23.30;16.27;;;11.90;65.50;;;;;;5009458;28;20099;-76
2021/03/10 11:07:29;;;;;;;20.67;16.27;;;11.80;62.20;;;;;;4993154;28;20037;-79
2021/03/10 11:09:54;;;;;;;21.00;15.77;;;12.00;64.80;;;;;;5009437;28;20075;-76
2021/03/10 11:12:20;;;;;;;22.43;14.47;;;12.00;63.80;;;;;;4997849;28;20053;-75
2021/03/10 11:14:47;;;;;;;20.93;14.90;;;12.10;61.90;;;;;;4997548;28;20026;-75
2021/03/10 11:17:12;;;;;;;23.30;16.60;;;12.10;63.90;;;;;;5030573;28;20130;-76
2021/03/10 11:19:38;;;;;;;22.60;15.87;;;12.10;63.20;;;;;;5011460;28;20045;-76
2021/03/10 11:22:06;;;;;;;20.70;15.10;;;12.10;63.50;;;;;;5012141;28;20042;-76
2021/03/10 11:24:33;;;;;;;19.10;14.80;;;12.00;62.80;;;;;;5011933;28;20121;-77
2021/03/10 11:26:58;;;;;;;22.87;14.70;;;12.00;62.70;;;;;;5029308;28;20037;-77
2021/03/10 11:29:24;;;;;;;20.30;14.77;;;11.90;61.90;;;;;;5010489;28;20367;-78
2021/03/10 11:31:50;;;;;;;21.27;15.50;;;11.90;62.00;;;;;;5029701;28;20180;-78
2021/03/10 11:34:15;;;;;;;22.23;16.23;;;11.90;63.00;;;;;;5012150;28;20029;-76
2021/03/10 11:36:41;;;;;;;21.93;15.70;;;11.90;61.90;;;;;;5014135;28;20034;-80
2021/03/10 11:39:07;;;;;;;19.27;14.20;;;11.90;63.50;;;;;;5011962;28;20057;-78
2021/03/10 11:41:35;;;;;;;18.27;13.73;;;12.00;62.60;;;;;;5029293;28;20061;-76
2021/03/10 11:44:03;;;;;;;19.63;14.33;;;11.90;62.50;;;;;;5013063;28;20572;-80
2021/03/10 11:46:29;;;;;;;20.30;14.43;;;11.90;61.60;;;;;;4996767;28;20029;-78
2021/03/10 11:48:55;;;;;;;19.10;14.20;;;11.90;62.40;;;;;;5010195;28;20045;-81
2021/03/10 11:51:21;;;;;;;18.00;13.60;;;12.00;63.30;;;;;;4995340;28;20063;-79
2021/03/10 11:53:46;;;;;;;16.07;13.10;;;11.90;61.10;;;;;;5011496;28;20069;-77
2021/03/10 11:56:12;;;;;;;21.63;14.57;;;11.90;61.30;;;;;;5011544;28;20482;-77
2021/03/10 11:58:39;;;;;;;17.57;13.13;;;11.90;61.20;;;;;;5012407;28;20029;-83
2021/03/10 12:01:05;;;;;;;18.07;13.53;;;11.90;62.70;;;;;;5013223;28;20072;-79
2021/03/10 12:03:30;;;;;;;17.63;13.87;;;11.90;61.20;;;;;;5013703;28;20155;-76
2021/03/10 12:05:56;;;;;;;18.43;13.40;;;11.90;61.90;;;;;;5014858;28;20393;-77
2021/03/10 12:08:22;;;;;;;17.27;13.60;;;11.80;60.70;;;;;;4998642;28;20436;-77
2021/03/10 12:10:47;;;;;;;16.83;13.20;;;11.80;61.90;;;;;;5013424;28;20040;-77
2021/03/10 12:13:13;;;;;;;16.43;12.30;;;11.80;62.20;;;;;;5013696;28;20032;-76
2021/03/10 12:15:39;;;;;;;17.67;12.47;;;11.90;61.00;;;;;;5031920;28;20037;-77
2021/03/10 12:18:06;;;;;;;23.03;12.73;;;11.90;62.00;;;;;;5013379;28;20037;-78
2021/03/10 12:20:32;;;;;;;15.50;12.67;;;11.90;60.60;;;;;;5032041;28;20559;-76
2021/03/10 12:22:57;;;;;;;17.40;12.73;;;11.90;60.70;;;;;;4997462;28;20069;-76
2021/03/10 12:25:23;;;;;;;16.33;11.57;;;11.80;60.40;;;;;;4997457;28;20124;-77
2021/03/10 12:27:50;;;;;;;15.07;11.27;;;11.90;61.80;;;;;;4977379;28;20084;-77
2021/03/10 12:30:16;;;;;;;15.13;10.93;;;11.90;60.60;;;;;;4998178;28;20052;-78
2021/03/10 12:32:42;;;;;;;18.27;11.33;;;12.00;63.10;;;;;;4995034;28;20043;-76
2021/03/10 12:35:09;;;;;;;17.47;12.53;;;12.20;62.50;;;;;;5031844;28;20108;-77
2021/03/10 12:37:35;;;;;;;16.47;11.23;;;12.30;60.20;;;;;;5031622;28;20061;-76
2021/03/10 12:40:01;;;;;;;13.73;10.83;;;12.30;60.70;;;;;;5013431;28;20053;-72
2021/03/10 12:42:27;;;;;;;15.67;11.90;;;12.40;60.70;;;;;;5011847;28;20051;-77
2021/03/10 12:44:52;;;;;;;16.87;11.87;;;12.40;58.40;;;;;;4996683;28;20033;-75
2021/03/10 12:47:19;;;;;;;16.77;11.87;;;12.40;58.80;;;;;;5013634;28;20029;-75